sensor_id;sensor_type;location;lat;lon;timestamp;temperature;humidity
36552;DHT22;22559;54.176;12.102;2023-02-24T00:02:23;4.60;99.90
36552;DHT22;22559;54.176;12.102;2023-02-24T00:04:49;4.60;99.90
36552;DHT22;22559;54.176;12.102;2023-02-24T00:07:16;4.70;99.90
36552;DHT22;22559;54.176;12.102;2023-02-24T00:09:42;4.70;99.90
36552;DHT22;22559;54.176;12.102;2023-02-24T00:12:13;4.70;99.90
36552;DHT22;22559;54.176;12.102;2023-02-24T00:14:42;4.70;99.90
36552;DHT22;22559;54.176;12.102;2023-02-24T00:17:08;4.70;99.90
36552;DHT22;22559;54.176;12.102;2023-02-24T00:19:35;4.70;99.90
36552;DHT22;22559;54.176;12.102;2023-02-24T00:22:02;4.80;99.90
36552;DHT22;22559;54.176;12.102;2023-02-24T00:24:29;4.70;99.90
36552;DHT22;22559;54.176;12.102;2023-02-24T00:26:57;4.70;99.90
36552;DHT22;22559;54.176;12.102;2023-02-24T00:29:24;4.70;99.90
36552;DHT22;22559;54.176;12.102;2023-02-24T00:31:54;4.80;99.90
36552;DHT22;22559;54.176;12.102;2023-02-24T00:34:28;4.80;99.90
36552;DHT22;22559;54.176;12.102;2023-02-24T01:40:57;5.00;99.90
36552;DHT22;22559;54.176;12.102;2023-02-24T01:43:23;5.00;99.90
36552;DHT22;22559;54.176;12.102;2023-02-24T01:45:52;5.00;99.90
36552;DHT22;22559;54.176;12.102;2023-02-24T01:48:18;5.00;99.90
36552;DHT22;22559;54.176;12.102;2023-02-24T01:50:44;5.00;99.90
36552;DHT22;22559;54.176;12.102;2023-02-24T01:53:11;5.00;99.90
36552;DHT22;22559;54.176;12.102;2023-02-24T01:55:41;5.00;99.90
36552;DHT22;22559;54.176;12.102;2023-02-24T01:58:14;4.90;99.90
36552;DHT22;22559;54.176;12.102;2023-02-24T02:00:41;4.90;99.90
36552;DHT22;22559;54.176;12.102;2023-02-24T02:03:32;4.90;99.90
36552;DHT22;22559;54.176;12.102;2023-02-24T02:06:08;4.90;99.90
36552;DHT22;22559;54.176;12.102;2023-02-24T02:08:38;4.90;99.90
36552;DHT22;22559;54.176;12.102;2023-02-24T02:11:07;4.90;99.90
36552;DHT22;22559;54.176;12.102;2023-02-24T02:13:34;4.90;99.90
36552;DHT22;22559;54.176;12.102;2023-02-24T02:18:40;4.90;99.90
36552;DHT22;22559;54.176;12.102;2023-02-24T02:34:53;4.90;99.90
36552;DHT22;22559;54.176;12.102;2023-02-24T02:37:32;4.90;99.90
36552;DHT22;22559;54.176;12.102;2023-02-24T02:40:20;4.90;99.90
36552;DHT22;22559;54.176;12.102;2023-02-24T02:48:28;4.90;99.90
36552;DHT22;22559;54.176;12.102;2023-02-24T02:51:01;4.90;99.90
36552;DHT22;22559;54.176;12.102;2023-02-24T02:53:53;4.90;99.90
36552;DHT22;22559;54.176;12.102;2023-02-24T02:56:28;4.90;99.90
36552;DHT22;22559;54.176;12.102;2023-02-24T02:58:58;4.80;99.90
36552;DHT22;22559;54.176;12.102;2023-02-24T03:01:28;4.90;99.90
36552;DHT22;22559;54.176;12.102;2023-02-24T03:04:03;4.80;99.90
36552;DHT22;22559;54.176;12.102;2023-02-24T03:06:34;4.80;99.90
36552;DHT22;22559;54.176;12.102;2023-02-24T03:11:48;4.80;99.90
36552;DHT22;22559;54.176;12.102;2023-02-24T03:14:20;4.80;99.90
36552;DHT22;22559;54.176;12.102;2023-02-24T03:16:48;4.80;99.90
36552;DHT22;22559;54.176;12.102;2023-02-24T03:19:18;4.80;99.90
36552;DHT22;22559;54.176;12.102;2023-02-24T03:21:49;4.80;99.90
36552;DHT22;22559;54.176;12.102;2023-02-24T03:24:18;4.80;99.90
36552;DHT22;22559;54.176;12.102;2023-02-24T03:26:51;4.80;99.90
36552;DHT22;22559;54.176;12.102;2023-02-24T03:29:25;4.80;99.90
36552;DHT22;22559;54.176;12.102;2023-02-24T03:32:12;4.80;99.90
36552;DHT22;22559;54.176;12.102;2023-02-24T03:34:49;4.80;99.90
36552;DHT22;22559;54.176;12.102;2023-02-24T03:37:20;4.80;99.90
36552;DHT22;22559;54.176;12.102;2023-02-24T03:39:51;4.80;99.90
36552;DHT22;22559;54.176;12.102;2023-02-24T03:42:19;4.80;99.90
36552;DHT22;22559;54.176;12.102;2023-02-24T03:44:45;4.80;99.90
36552;DHT22;22559;54.176;12.102;2023-02-24T03:47:13;4.80;99.90
36552;DHT22;22559;54.176;12.102;2023-02-24T03:49:45;4.80;99.90
36552;DHT22;22559;54.176;12.102;2023-02-24T03:52:22;4.70;99.90
36552;DHT22;22559;54.176;12.102;2023-02-24T03:57:51;4.80;99.90
36552;DHT22;22559;54.176;12.102;2023-02-24T04:00:52;4.70;99.90
36552;DHT22;22559;54.176;12.102;2023-02-24T04:03:32;4.70;99.90
36552;DHT22;22559;54.176;12.102;2023-02-24T04:06:12;4.70;99.90
36552;DHT22;22559;54.176;12.102;2023-02-24T04:09:03;4.70;99.90
36552;DHT22;22559;54.176;12.102;2023-02-24T04:11:35;4.70;99.90
36552;DHT22;22559;54.176;12.102;2023-02-24T04:14:15;4.70;99.90
36552;DHT22;22559;54.176;12.102;2023-02-24T04:16:56;4.70;99.90
36552;DHT22;22559;54.176;12.102;2023-02-24T04:21:54;4.70;99.90
36552;DHT22;22559;54.176;12.102;2023-02-24T04:24:23;4.70;99.90
36552;DHT22;22559;54.176;12.102;2023-02-24T04:26:52;4.70;99.90
36552;DHT22;22559;54.176;12.102;2023-02-24T04:29:25;4.60;99.90
36552;DHT22;22559;54.176;12.102;2023-02-24T04:31:58;4.60;99.90
36552;DHT22;22559;54.176;12.102;2023-02-24T04:34:25;4.60;99.90
36552;DHT22;22559;54.176;12.102;2023-02-24T04:36:53;4.60;99.90
36552;DHT22;22559;54.176;12.102;2023-02-24T04:39:20;4.60;99.90
36552;DHT22;22559;54.176;12.102;2023-02-24T04:41:48;4.60;99.90
36552;DHT22;22559;54.176;12.102;2023-02-24T04:44:21;4.60;99.90
36552;DHT22;22559;54.176;12.102;2023-02-24T04:46:48;4.60;99.90
36552;DHT22;22559;54.176;12.102;2023-02-24T04:49:15;4.60;99.90
36552;DHT22;22559;54.176;12.102;2023-02-24T04:51:42;4.60;99.90
36552;DHT22;22559;54.176;12.102;2023-02-24T04:54:14;4.60;99.90
36552;DHT22;22559;54.176;12.102;2023-02-24T04:56:42;4.60;99.90
36552;DHT22;22559;54.176;12.102;2023-02-24T04:59:09;4.60;99.90
36552;DHT22;22559;54.176;12.102;2023-02-24T05:01:36;4.60;99.90
36552;DHT22;22559;54.176;12.102;2023-02-24T05:04:07;4.60;99.90
36552;DHT22;22559;54.176;12.102;2023-02-24T05:06:33;4.60;99.90
36552;DHT22;22559;54.176;12.102;2023-02-24T05:08:59;4.60;99.90
36552;DHT22;22559;54.176;12.102;2023-02-24T05:11:42;4.60;99.90
36552;DHT22;22559;54.176;12.102;2023-02-24T05:14:11;4.60;99.90
36552;DHT22;22559;54.176;12.102;2023-02-24T05:16:45;4.60;99.90
36552;DHT22;22559;54.176;12.102;2023-02-24T05:19:13;4.50;99.90
36552;DHT22;22559;54.176;12.102;2023-02-24T05:21:57;4.50;99.90
36552;DHT22;22559;54.176;12.102;2023-02-24T05:24:25;4.50;99.90
36552;DHT22;22559;54.176;12.102;2023-02-24T05:26:51;4.50;99.90
36552;DHT22;22559;54.176;12.102;2023-02-24T05:29:23;4.50;99.90
36552;DHT22;22559;54.176;12.102;2023-02-24T05:31:55;4.50;99.90
36552;DHT22;22559;54.176;12.102;2023-02-24T05:34:25;4.50;99.90
36552;DHT22;22559;54.176;12.102;2023-02-24T05:36:51;4.50;99.90
36552;DHT22;22559;54.176;12.102;2023-02-24T05:39:18;4.50;99.90
36552;DHT22;22559;54.176;12.102;2023-02-24T05:41:46;4.50;99.90
36552;DHT22;22559;54.176;12.102;2023-02-24T05:44:18;4.60;99.90
36552;DHT22;22559;54.176;12.102;2023-02-24T05:46:52;4.60;99.90
36552;DHT22;22559;54.176;12.102;2023-02-24T05:49:28;4.60;99.90
36552;DHT22;22559;54.176;12.102;2023-02-24T05:51:56;4.50;99.90
36552;DHT22;22559;54.176;12.102;2023-02-24T05:54:30;4.50;99.90
36552;DHT22;22559;54.176;12.102;2023-02-24T05:57:01;4.50;99.90
36552;DHT22;22559;54.176;12.102;2023-02-24T05:59:28;4.50;99.90
36552;DHT22;22559;54.176;12.102;2023-02-24T06:02:01;4.50;99.90
36552;DHT22;22559;54.176;12.102;2023-02-24T06:04:35;4.50;99.90
36552;DHT22;22559;54.176;12.102;2023-02-24T06:07:25;4.50;99.90
36552;DHT22;22559;54.176;12.102;2023-02-24T06:09:57;4.50;99.90
36552;DHT22;22559;54.176;12.102;2023-02-24T06:12:33;4.50;99.90
36552;DHT22;22559;54.176;12.102;2023-02-24T06:14:59;4.50;99.90
36552;DHT22;22559;54.176;12.102;2023-02-24T06:17:26;4.50;99.90
36552;DHT22;22559;54.176;12.102;2023-02-24T06:19:53;4.50;99.90
36552;DHT22;22559;54.176;12.102;2023-02-24T06:22:21;4.50;99.90
36552;DHT22;22559;54.176;12.102;2023-02-24T06:24:47;4.50;99.90
36552;DHT22;22559;54.176;12.102;2023-02-24T06:27:16;4.50;99.90
36552;DHT22;22559;54.176;12.102;2023-02-24T06:29:48;4.50;99.90
36552;DHT22;22559;54.176;12.102;2023-02-24T06:32:22;4.50;99.90
36552;DHT22;22559;54.176;12.102;2023-02-24T06:34:49;4.50;99.90
36552;DHT22;22559;54.176;12.102;2023-02-24T06:37:16;4.50;99.90
36552;DHT22;22559;54.176;12.102;2023-02-24T06:39:42;4.50;99.90
36552;DHT22;22559;54.176;12.102;2023-02-24T06:42:09;4.40;99.90
36552;DHT22;22559;54.176;12.102;2023-02-24T06:44:37;4.50;99.90
36552;DHT22;22559;54.176;12.102;2023-02-24T06:47:05;4.40;99.90
36552;DHT22;22559;54.176;12.102;2023-02-24T06:49:31;4.50;99.90
36552;DHT22;22559;54.176;12.102;2023-02-24T06:51:57;4.40;99.90
36552;DHT22;22559;54.176;12.102;2023-02-24T06:54:24;4.40;99.90
36552;DHT22;22559;54.176;12.102;2023-02-24T06:56:55;4.30;99.90
36552;DHT22;22559;54.176;12.102;2023-02-24T06:59:23;4.30;99.90
36552;DHT22;22559;54.176;12.102;2023-02-24T07:01:54;4.20;99.90
36552;DHT22;22559;54.176;12.102;2023-02-24T07:04:20;4.10;99.90
36552;DHT22;22559;54.176;12.102;2023-02-24T07:06:51;4.00;99.90
36552;DHT22;22559;54.176;12.102;2023-02-24T07:09:19;3.90;99.90
36552;DHT22;22559;54.176;12.102;2023-02-24T07:11:47;3.80;99.90
36552;DHT22;22559;54.176;12.102;2023-02-24T07:14:16;3.80;99.90
36552;DHT22;22559;54.176;12.102;2023-02-24T07:16:42;3.70;99.90
36552;DHT22;22559;54.176;12.102;2023-02-24T07:19:12;3.70;99.90
36552;DHT22;22559;54.176;12.102;2023-02-24T07:21:40;3.70;99.90
36552;DHT22;22559;54.176;12.102;2023-02-24T07:24:12;3.60;99.90
36552;DHT22;22559;54.176;12.102;2023-02-24T07:26:39;3.50;99.90
36552;DHT22;22559;54.176;12.102;2023-02-24T07:29:10;3.50;99.90
36552;DHT22;22559;54.176;12.102;2023-02-24T07:31:36;3.40;99.90
36552;DHT22;22559;54.176;12.102;2023-02-24T07:34:02;3.30;99.90
36552;DHT22;22559;54.176;12.102;2023-02-24T07:36:28;3.30;99.90
36552;DHT22;22559;54.176;12.102;2023-02-24T07:38:57;3.20;99.90
36552;DHT22;22559;54.176;12.102;2023-02-24T07:41:24;3.20;99.90
36552;DHT22;22559;54.176;12.102;2023-02-24T07:43:52;3.10;99.90
36552;DHT22;22559;54.176;12.102;2023-02-24T07:46:25;3.00;99.90
36552;DHT22;22559;54.176;12.102;2023-02-24T07:48:53;3.00;99.90
36552;DHT22;22559;54.176;12.102;2023-02-24T07:51:22;2.90;99.90
36552;DHT22;22559;54.176;12.102;2023-02-24T07:53:53;2.90;99.90
36552;DHT22;22559;54.176;12.102;2023-02-24T07:56:22;2.80;99.90
36552;DHT22;22559;54.176;12.102;2023-02-24T07:58:59;2.80;99.90
36552;DHT22;22559;54.176;12.102;2023-02-24T08:01:27;2.80;99.90
36552;DHT22;22559;54.176;12.102;2023-02-24T08:04:02;2.80;99.90
36552;DHT22;22559;54.176;12.102;2023-02-24T08:06:41;2.80;99.90
36552;DHT22;22559;54.176;12.102;2023-02-24T08:09:14;2.80;99.90
36552;DHT22;22559;54.176;12.102;2023-02-24T08:11:49;2.80;99.90
36552;DHT22;22559;54.176;12.102;2023-02-24T08:14:19;2.70;99.90
36552;DHT22;22559;54.176;12.102;2023-02-24T08:16:47;2.70;99.90
36552;DHT22;22559;54.176;12.102;2023-02-24T08:19:15;2.60;99.90
36552;DHT22;22559;54.176;12.102;2023-02-24T08:21:47;2.60;99.90
36552;DHT22;22559;54.176;12.102;2023-02-24T08:24:16;2.50;99.90
36552;DHT22;22559;54.176;12.102;2023-02-24T08:26:47;2.50;99.90
36552;DHT22;22559;54.176;12.102;2023-02-24T08:29:29;2.50;99.90
36552;DHT22;22559;54.176;12.102;2023-02-24T08:31:56;2.40;99.90
36552;DHT22;22559;54.176;12.102;2023-02-24T08:34:22;2.40;99.90
36552;DHT22;22559;54.176;12.102;2023-02-24T08:36:52;2.40;99.90
36552;DHT22;22559;54.176;12.102;2023-02-24T08:39:20;2.40;99.90
36552;DHT22;22559;54.176;12.102;2023-02-24T08:41:47;2.30;99.90
36552;DHT22;22559;54.176;12.102;2023-02-24T08:44:17;2.30;99.90
36552;DHT22;22559;54.176;12.102;2023-02-24T08:46:48;2.30;99.90
36552;DHT22;22559;54.176;12.102;2023-02-24T08:49:16;2.30;99.90
36552;DHT22;22559;54.176;12.102;2023-02-24T08:51:47;2.30;99.90
36552;DHT22;22559;54.176;12.102;2023-02-24T08:54:17;2.30;99.90
36552;DHT22;22559;54.176;12.102;2023-02-24T08:56:45;2.20;99.90
36552;DHT22;22559;54.176;12.102;2023-02-24T08:59:16;2.20;99.90
36552;DHT22;22559;54.176;12.102;2023-02-24T09:02:04;2.20;99.90
36552;DHT22;22559;54.176;12.102;2023-02-24T09:05:03;2.20;99.90
36552;DHT22;22559;54.176;12.102;2023-02-24T09:07:40;2.20;99.90
36552;DHT22;22559;54.176;12.102;2023-02-24T09:10:12;2.20;99.90
36552;DHT22;22559;54.176;12.102;2023-02-24T09:12:42;2.30;99.90
36552;DHT22;22559;54.176;12.102;2023-02-24T09:15:09;2.30;99.90
36552;DHT22;22559;54.176;12.102;2023-02-24T09:17:35;2.30;99.90
36552;DHT22;22559;54.176;12.102;2023-02-24T09:22:50;2.30;99.90
36552;DHT22;22559;54.176;12.102;2023-02-24T09:25:30;2.40;99.90
36552;DHT22;22559;54.176;12.102;2023-02-24T09:28:13;2.40;99.90
36552;DHT22;22559;54.176;12.102;2023-02-24T09:30:51;2.40;99.90
36552;DHT22;22559;54.176;12.102;2023-02-24T09:33:33;2.40;99.90
36552;DHT22;22559;54.176;12.102;2023-02-24T09:38:47;2.50;99.90
36552;DHT22;22559;54.176;12.102;2023-02-24T09:44:00;2.60;99.90
36552;DHT22;22559;54.176;12.102;2023-02-24T09:46:35;2.70;99.90
36552;DHT22;22559;54.176;12.102;2023-02-24T09:49:14;2.70;99.90
36552;DHT22;22559;54.176;12.102;2023-02-24T09:51:42;2.80;99.90
36552;DHT22;22559;54.176;12.102;2023-02-24T09:54:16;2.80;99.90
36552;DHT22;22559;54.176;12.102;2023-02-24T09:57:01;2.90;99.90
36552;DHT22;22559;54.176;12.102;2023-02-24T09:59:46;3.00;99.90
36552;DHT22;22559;54.176;12.102;2023-02-24T10:05:24;3.10;99.90
36552;DHT22;22559;54.176;12.102;2023-02-24T10:07:52;3.20;99.90
36552;DHT22;22559;54.176;12.102;2023-02-24T10:10:25;3.20;99.90
36552;DHT22;22559;54.176;12.102;2023-02-24T10:15:38;3.30;99.90
36552;DHT22;22559;54.176;12.102;2023-02-24T10:18:45;3.30;99.90
36552;DHT22;22559;54.176;12.102;2023-02-24T10:21:38;3.40;99.90
36552;DHT22;22559;54.176;12.102;2023-02-24T10:24:19;3.40;99.90
36552;DHT22;22559;54.176;12.102;2023-02-24T10:27:02;3.40;99.90
36552;DHT22;22559;54.176;12.102;2023-02-24T10:35:16;3.40;99.90
36552;DHT22;22559;54.176;12.102;2023-02-24T10:37:42;3.50;99.90
36552;DHT22;22559;54.176;12.102;2023-02-24T10:40:08;3.50;99.90
36552;DHT22;22559;54.176;12.102;2023-02-24T10:42:36;3.50;99.90
36552;DHT22;22559;54.176;12.102;2023-02-24T10:45:16;3.60;99.90
36552;DHT22;22559;54.176;12.102;2023-02-24T10:47:51;3.60;99.90
36552;DHT22;22559;54.176;12.102;2023-02-24T10:50:38;3.70;99.90
36552;DHT22;22559;54.176;12.102;2023-02-24T10:53:13;3.70;99.90
36552;DHT22;22559;54.176;12.102;2023-02-24T10:56:00;3.80;99.90
36552;DHT22;22559;54.176;12.102;2023-02-24T11:02:23;3.90;99.90
36552;DHT22;22559;54.176;12.102;2023-02-24T11:04:55;3.90;99.90
36552;DHT22;22559;54.176;12.102;2023-02-24T11:07:24;4.00;99.90
36552;DHT22;22559;54.176;12.102;2023-02-24T11:10:12;4.00;99.90
36552;DHT22;22559;54.176;12.102;2023-02-24T11:12:46;4.10;99.90
36552;DHT22;22559;54.176;12.102;2023-02-24T11:15:35;4.10;99.90
36552;DHT22;22559;54.176;12.102;2023-02-24T11:18:26;4.10;99.90
36552;DHT22;22559;54.176;12.102;2023-02-24T11:21:12;4.20;99.90
36552;DHT22;22559;54.176;12.102;2023-02-24T11:23:44;4.20;99.90
36552;DHT22;22559;54.176;12.102;2023-02-24T11:26:35;4.30;99.90
36552;DHT22;22559;54.176;12.102;2023-02-24T11:35:22;4.40;99.90
36552;DHT22;22559;54.176;12.102;2023-02-24T11:40:40;4.60;99.90
36552;DHT22;22559;54.176;12.102;2023-02-24T11:45:59;4.70;99.90
36552;DHT22;22559;54.176;12.102;2023-02-24T11:48:31;4.70;99.90
36552;DHT22;22559;54.176;12.102;2023-02-24T11:51:15;4.70;99.90
36552;DHT22;22559;54.176;12.102;2023-02-24T11:54:01;4.80;99.90
36552;DHT22;22559;54.176;12.102;2023-02-24T11:56:29;4.80;99.90
36552;DHT22;22559;54.176;12.102;2023-02-24T12:07:20;5.20;99.90
36552;DHT22;22559;54.176;12.102;2023-02-24T12:09:55;5.40;99.90
36552;DHT22;22559;54.176;12.102;2023-02-24T12:12:31;5.40;99.90
36552;DHT22;22559;54.176;12.102;2023-02-24T12:15:24;5.50;99.90
36552;DHT22;22559;54.176;12.102;2023-02-24T12:18:04;5.60;99.90
36552;DHT22;22559;54.176;12.102;2023-02-24T12:20:47;5.60;99.90
36552;DHT22;22559;54.176;12.102;2023-02-24T12:28:15;5.40;99.90
36552;DHT22;22559;54.176;12.102;2023-02-24T12:34:42;5.70;99.90
36552;DHT22;22559;54.176;12.102;2023-02-24T12:39:39;5.60;99.90
36552;DHT22;22559;54.176;12.102;2023-02-24T12:45:17;5.50;99.90
36552;DHT22;22559;54.176;12.102;2023-02-24T12:50:42;5.30;99.90
36552;DHT22;22559;54.176;12.102;2023-02-24T12:53:22;5.20;99.90
36552;DHT22;22559;54.176;12.102;2023-02-24T12:56:15;5.20;99.90
36552;DHT22;22559;54.176;12.102;2023-02-24T12:58:45;5.10;99.90
36552;DHT22;22559;54.176;12.102;2023-02-24T13:12:19;5.20;99.90
36552;DHT22;22559;54.176;12.102;2023-02-24T13:14:48;5.40;99.90
36552;DHT22;22559;54.176;12.102;2023-02-24T13:17:18;5.50;99.90
36552;DHT22;22559;54.176;12.102;2023-02-24T13:19:45;5.50;99.90
36552;DHT22;22559;54.176;12.102;2023-02-24T13:25:09;5.50;99.90
36552;DHT22;22559;54.176;12.102;2023-02-24T13:27:42;5.60;99.90
36552;DHT22;22559;54.176;12.102;2023-02-24T13:32:41;5.50;99.90
36552;DHT22;22559;54.176;12.102;2023-02-24T13:37:42;5.50;99.90
36552;DHT22;22559;54.176;12.102;2023-02-24T13:43:02;5.50;99.90
36552;DHT22;22559;54.176;12.102;2023-02-24T13:45:38;5.60;99.90
36552;DHT22;22559;54.176;12.102;2023-02-24T13:51:37;5.60;99.90
36552;DHT22;22559;54.176;12.102;2023-02-24T14:02:47;6.00;99.90
36552;DHT22;22559;54.176;12.102;2023-02-24T14:05:30;6.00;99.90
36552;DHT22;22559;54.176;12.102;2023-02-24T14:07:57;6.00;99.90
36552;DHT22;22559;54.176;12.102;2023-02-24T14:10:27;6.10;99.90
36552;DHT22;22559;54.176;12.102;2023-02-24T14:13:04;6.10;99.90
36552;DHT22;22559;54.176;12.102;2023-02-24T14:15:31;6.00;99.90
36552;DHT22;22559;54.176;12.102;2023-02-24T14:18:03;6.00;99.90
36552;DHT22;22559;54.176;12.102;2023-02-24T14:20:33;6.00;99.90
36552;DHT22;22559;54.176;12.102;2023-02-24T14:23:00;5.90;99.90
36552;DHT22;22559;54.176;12.102;2023-02-24T14:25:29;5.90;99.90
36552;DHT22;22559;54.176;12.102;2023-02-24T14:27:55;5.90;99.90
36552;DHT22;22559;54.176;12.102;2023-02-24T14:30:38;5.80;99.90
36552;DHT22;22559;54.176;12.102;2023-02-24T14:33:06;5.70;99.90
36552;DHT22;22559;54.176;12.102;2023-02-24T14:35:39;5.50;99.90
36552;DHT22;22559;54.176;12.102;2023-02-24T14:38:16;5.50;99.90
36552;DHT22;22559;54.176;12.102;2023-02-24T14:40:51;5.50;99.90
36552;DHT22;22559;54.176;12.102;2023-02-24T14:43:16;5.50;99.90
36552;DHT22;22559;54.176;12.102;2023-02-24T14:45:47;5.50;99.90
36552;DHT22;22559;54.176;12.102;2023-02-24T14:48:29;5.60;99.90
36552;DHT22;22559;54.176;12.102;2023-02-24T14:51:00;5.70;99.90
36552;DHT22;22559;54.176;12.102;2023-02-24T14:53:27;5.70;99.90
36552;DHT22;22559;54.176;12.102;2023-02-24T14:55:55;5.90;99.90
36552;DHT22;22559;54.176;12.102;2023-02-24T14:58:30;5.90;99.90
36552;DHT22;22559;54.176;12.102;2023-02-24T15:01:02;5.90;99.90
36552;DHT22;22559;54.176;12.102;2023-02-24T15:03:31;5.70;99.90
36552;DHT22;22559;54.176;12.102;2023-02-24T15:06:04;5.70;99.90
36552;DHT22;22559;54.176;12.102;2023-02-24T15:08:49;5.60;99.90
36552;DHT22;22559;54.176;12.102;2023-02-24T15:11:22;5.60;99.90
36552;DHT22;22559;54.176;12.102;2023-02-24T15:13:52;5.60;99.90
36552;DHT22;22559;54.176;12.102;2023-02-24T15:16:40;5.60;99.90
36552;DHT22;22559;54.176;12.102;2023-02-24T15:19:16;5.60;99.90
36552;DHT22;22559;54.176;12.102;2023-02-24T15:21:46;5.60;99.90
36552;DHT22;22559;54.176;12.102;2023-02-24T15:24:19;5.60;99.90
36552;DHT22;22559;54.176;12.102;2023-02-24T15:27:00;5.60;99.90
36552;DHT22;22559;54.176;12.102;2023-02-24T15:29:29;5.60;99.90
36552;DHT22;22559;54.176;12.102;2023-02-24T15:31:57;5.70;99.90
36552;DHT22;22559;54.176;12.102;2023-02-24T15:34:31;5.70;99.90
36552;DHT22;22559;54.176;12.102;2023-02-24T15:37:01;5.70;99.90
36552;DHT22;22559;54.176;12.102;2023-02-24T15:39:30;5.60;99.90
36552;DHT22;22559;54.176;12.102;2023-02-24T15:42:29;5.60;99.90
36552;DHT22;22559;54.176;12.102;2023-02-24T15:47:52;5.60;99.90
36552;DHT22;22559;54.176;12.102;2023-02-24T15:50:19;5.50;99.90
36552;DHT22;22559;54.176;12.102;2023-02-24T15:52:45;5.50;99.90
36552;DHT22;22559;54.176;12.102;2023-02-24T15:55:14;5.50;99.90
36552;DHT22;22559;54.176;12.102;2023-02-24T15:57:40;5.60;99.90
36552;DHT22;22559;54.176;12.102;2023-02-24T16:00:07;5.60;99.90
36552;DHT22;22559;54.176;12.102;2023-02-24T16:02:40;5.60;99.90
36552;DHT22;22559;54.176;12.102;2023-02-24T16:05:07;5.60;99.90
36552;DHT22;22559;54.176;12.102;2023-02-24T16:07:35;5.60;99.90
36552;DHT22;22559;54.176;12.102;2023-02-24T16:10:02;5.50;99.90
36552;DHT22;22559;54.176;12.102;2023-02-24T16:12:31;5.60;99.90
36552;DHT22;22559;54.176;12.102;2023-02-24T16:14:59;5.60;99.90
36552;DHT22;22559;54.176;12.102;2023-02-24T16:19:57;5.60;99.90
36552;DHT22;22559;54.176;12.102;2023-02-24T16:22:24;5.60;99.90
36552;DHT22;22559;54.176;12.102;2023-02-24T16:24:49;5.60;99.90
36552;DHT22;22559;54.176;12.102;2023-02-24T16:27:16;5.60;99.90
36552;DHT22;22559;54.176;12.102;2023-02-24T16:29:43;5.60;99.90
36552;DHT22;22559;54.176;12.102;2023-02-24T16:32:10;5.60;99.90
36552;DHT22;22559;54.176;12.102;2023-02-24T16:34:36;5.60;99.90
36552;DHT22;22559;54.176;12.102;2023-02-24T16:37:01;5.60;99.90
36552;DHT22;22559;54.176;12.102;2023-02-24T16:39:27;5.60;99.90
36552;DHT22;22559;54.176;12.102;2023-02-24T16:41:54;5.60;99.90
36552;DHT22;22559;54.176;12.102;2023-02-24T16:44:19;5.50;99.90
36552;DHT22;22559;54.176;12.102;2023-02-24T16:46:45;5.50;99.90
36552;DHT22;22559;54.176;12.102;2023-02-24T16:49:16;5.50;99.90
36552;DHT22;22559;54.176;12.102;2023-02-24T16:51:43;5.40;99.90
36552;DHT22;22559;54.176;12.102;2023-02-24T16:54:08;5.40;99.90
36552;DHT22;22559;54.176;12.102;2023-02-24T16:56:34;5.40;99.90
36552;DHT22;22559;54.176;12.102;2023-02-24T16:59:00;5.40;99.90
36552;DHT22;22559;54.176;12.102;2023-02-24T17:01:25;5.40;99.90
36552;DHT22;22559;54.176;12.102;2023-02-24T17:03:52;5.40;99.90
36552;DHT22;22559;54.176;12.102;2023-02-24T17:06:21;5.40;99.90
36552;DHT22;22559;54.176;12.102;2023-02-24T17:08:47;5.40;99.90
36552;DHT22;22559;54.176;12.102;2023-02-24T17:11:15;5.40;99.90
36552;DHT22;22559;54.176;12.102;2023-02-24T17:13:42;5.40;99.90
36552;DHT22;22559;54.176;12.102;2023-02-24T17:16:09;5.40;99.90
36552;DHT22;22559;54.176;12.102;2023-02-24T17:18:34;5.40;99.90
36552;DHT22;22559;54.176;12.102;2023-02-24T17:21:00;5.40;99.90
36552;DHT22;22559;54.176;12.102;2023-02-24T17:23:26;5.20;99.90
36552;DHT22;22559;54.176;12.102;2023-02-24T17:25:54;5.10;99.90
36552;DHT22;22559;54.176;12.102;2023-02-24T17:28:21;5.00;99.90
36552;DHT22;22559;54.176;12.102;2023-02-24T17:30:47;4.90;99.90
36552;DHT22;22559;54.176;12.102;2023-02-24T17:33:12;4.80;99.90
36552;DHT22;22559;54.176;12.102;2023-02-24T17:35:40;4.70;99.90
36552;DHT22;22559;54.176;12.102;2023-02-24T17:38:13;4.60;99.90
36552;DHT22;22559;54.176;12.102;2023-02-24T17:40:44;4.60;99.90
36552;DHT22;22559;54.176;12.102;2023-02-24T17:43:10;4.60;99.90
36552;DHT22;22559;54.176;12.102;2023-02-24T17:45:36;4.50;99.90
36552;DHT22;22559;54.176;12.102;2023-02-24T17:48:07;4.60;99.90
36552;DHT22;22559;54.176;12.102;2023-02-24T17:50:33;4.60;99.90
36552;DHT22;22559;54.176;12.102;2023-02-24T17:52:58;4.70;99.90
36552;DHT22;22559;54.176;12.102;2023-02-24T17:55:24;4.70;99.90
36552;DHT22;22559;54.176;12.102;2023-02-24T17:57:50;4.80;99.90
36552;DHT22;22559;54.176;12.102;2023-02-24T18:00:16;4.80;99.90
36552;DHT22;22559;54.176;12.102;2023-02-24T18:02:42;4.90;99.90
36552;DHT22;22559;54.176;12.102;2023-02-24T18:05:08;4.90;99.90
36552;DHT22;22559;54.176;12.102;2023-02-24T18:07:34;5.00;99.90
36552;DHT22;22559;54.176;12.102;2023-02-24T18:10:00;5.00;99.90
36552;DHT22;22559;54.176;12.102;2023-02-24T18:12:26;5.10;99.90
36552;DHT22;22559;54.176;12.102;2023-02-24T18:14:52;5.10;99.90
36552;DHT22;22559;54.176;12.102;2023-02-24T18:17:18;5.20;99.90
36552;DHT22;22559;54.176;12.102;2023-02-24T18:19:43;5.20;99.90
36552;DHT22;22559;54.176;12.102;2023-02-24T18:22:09;5.30;99.90
36552;DHT22;22559;54.176;12.102;2023-02-24T18:24:36;5.30;99.90
36552;DHT22;22559;54.176;12.102;2023-02-24T18:27:04;5.40;99.90
36552;DHT22;22559;54.176;12.102;2023-02-24T18:29:30;5.40;99.90
36552;DHT22;22559;54.176;12.102;2023-02-24T18:31:55;5.50;99.90
36552;DHT22;22559;54.176;12.102;2023-02-24T18:34:21;5.50;99.90
36552;DHT22;22559;54.176;12.102;2023-02-24T18:36:48;5.50;99.90
36552;DHT22;22559;54.176;12.102;2023-02-24T18:39:14;5.30;99.90
36552;DHT22;22559;54.176;12.102;2023-02-24T18:41:40;4.90;99.90
36552;DHT22;22559;54.176;12.102;2023-02-24T18:44:07;4.70;99.90
36552;DHT22;22559;54.176;12.102;2023-02-24T18:46:33;4.50;99.90
36552;DHT22;22559;54.176;12.102;2023-02-24T18:48:59;4.40;99.90
36552;DHT22;22559;54.176;12.102;2023-02-24T18:51:25;4.30;99.90
36552;DHT22;22559;54.176;12.102;2023-02-24T18:53:52;4.30;99.90
36552;DHT22;22559;54.176;12.102;2023-02-24T18:56:20;4.30;99.90
36552;DHT22;22559;54.176;12.102;2023-02-24T18:58:47;4.20;99.90
36552;DHT22;22559;54.176;12.102;2023-02-24T19:01:26;4.20;99.90
36552;DHT22;22559;54.176;12.102;2023-02-24T19:03:53;4.20;99.90
36552;DHT22;22559;54.176;12.102;2023-02-24T19:06:20;4.20;99.90
36552;DHT22;22559;54.176;12.102;2023-02-24T19:08:48;4.20;99.90
36552;DHT22;22559;54.176;12.102;2023-02-24T19:11:17;4.20;99.90